sensor_id;sensor_type;location;lat;lon;timestamp;pressure;altitude;pressure_sealevel;temperature;humidity
51876;BME280;34054;52.100;5.116;2022-12-20T00:00:17;101065.25;;;9.41;91.45
51876;BME280;34054;52.100;5.116;2022-12-20T00:00:49;101063.19;;;9.48;91.33
51876;BME280;34054;52.100;5.116;2022-12-20T00:01:23;101061.06;;;9.50;91.04
51876;BME280;34054;52.100;5.116;2022-12-20T00:01:57;101056.81;;;9.54;90.85
51876;BME280;34054;52.100;5.116;2022-12-20T00:02:29;101061.41;;;9.54;90.61
51876;BME280;34054;52.100;5.116;2022-12-20T00:03:02;101061.66;;;9.52;90.78
51876;BME280;34054;52.100;5.116;2022-12-20T00:03:33;101058.34;;;9.50;90.76
51876;BME280;34054;52.100;5.116;2022-12-20T00:04:05;101061.31;;;9.49;90.86
51876;BME280;34054;52.100;5.116;2022-12-20T00:04:38;101063.44;;;9.47;91.04
51876;BME280;34054;52.100;5.116;2022-12-20T00:05:09;101052.75;;;9.40;91.23
51876;BME280;34054;52.100;5.116;2022-12-20T00:05:41;101053.81;;;9.39;91.00
51876;BME280;34054;52.100;5.116;2022-12-20T00:06:14;101054.97;;;9.43;91.07
51876;BME280;34054;52.100;5.116;2022-12-20T00:06:46;101056.03;;;9.42;90.85
51876;BME280;34054;52.100;5.116;2022-12-20T00:07:18;101056.03;;;9.42;90.92
51876;BME280;34054;52.100;5.116;2022-12-20T00:07:50;101061.94;;;9.39;91.09
51876;BME280;34054;52.100;5.116;2022-12-20T00:08:22;101062.78;;;9.39;90.90
51876;BME280;34054;52.100;5.116;2022-12-20T00:08:55;101060.53;;;9.36;91.19
51876;BME280;34054;52.100;5.116;2022-12-20T00:09:28;101065.81;;;9.43;90.94
51876;BME280;34054;52.100;5.116;2022-12-20T00:10:00;101065.44;;;9.51;90.74
51876;BME280;34054;52.100;5.116;2022-12-20T00:10:34;101058.09;;;9.52;90.48
51876;BME280;34054;52.100;5.116;2022-12-20T00:11:08;101069.19;;;9.33;91.01
51876;BME280;34054;52.100;5.116;2022-12-20T00:11:40;101073.69;;;9.45;90.98
51876;BME280;34054;52.100;5.116;2022-12-20T00:12:13;101082.81;;;9.38;90.96
51876;BME280;34054;52.100;5.116;2022-12-20T00:12:45;101077.97;;;9.40;90.80
51876;BME280;34054;52.100;5.116;2022-12-20T00:13:16;101068.53;;;9.43;90.66
51876;BME280;34054;52.100;5.116;2022-12-20T00:13:50;101052.91;;;9.33;90.87
51876;BME280;34054;52.100;5.116;2022-12-20T00:14:22;101075.34;;;9.46;90.57
51876;BME280;34054;52.100;5.116;2022-12-20T00:14:55;101072.97;;;9.49;90.27
51876;BME280;34054;52.100;5.116;2022-12-20T00:15:27;101074.69;;;9.55;90.13
51876;BME280;34054;52.100;5.116;2022-12-20T00:16:06;101061.31;;;9.66;89.58
51876;BME280;34054;52.100;5.116;2022-12-20T00:16:39;101076.28;;;9.68;89.35
51876;BME280;34054;52.100;5.116;2022-12-20T00:17:11;101083.69;;;9.73;89.07
51876;BME280;34054;52.100;5.116;2022-12-20T00:17:43;101066.94;;;9.76;89.02
51876;BME280;34054;52.100;5.116;2022-12-20T00:18:15;101076.06;;;9.70;88.77
51876;BME280;34054;52.100;5.116;2022-12-20T00:18:50;101069.56;;;9.71;88.82
51876;BME280;34054;52.100;5.116;2022-12-20T00:19:22;101064.47;;;9.74;88.75
51876;BME280;34054;52.100;5.116;2022-12-20T00:19:55;101074.75;;;9.72;88.91
51876;BME280;34054;52.100;5.116;2022-12-20T00:20:27;101064.63;;;9.68;89.01
51876;BME280;34054;52.100;5.116;2022-12-20T00:20:59;101062.00;;;9.73;88.91
51876;BME280;34054;52.100;5.116;2022-12-20T00:21:33;101058.72;;;9.71;88.81
51876;BME280;34054;52.100;5.116;2022-12-20T00:22:06;101053.28;;;9.71;88.93
51876;BME280;34054;52.100;5.116;2022-12-20T00:22:38;101052.22;;;9.72;88.67
51876;BME280;34054;52.100;5.116;2022-12-20T00:23:09;101045.22;;;9.76;88.67
51876;BME280;34054;52.100;5.116;2022-12-20T00:23:42;101053.63;;;9.74;88.52
51876;BME280;34054;52.100;5.116;2022-12-20T00:24:13;101054.53;;;9.80;88.36
51876;BME280;34054;52.100;5.116;2022-12-20T00:24:45;101045.56;;;9.80;88.19
51876;BME280;34054;52.100;5.116;2022-12-20T00:25:17;101049.59;;;9.77;88.35
51876;BME280;34054;52.100;5.116;2022-12-20T00:25:50;101056.91;;;9.77;88.63
51876;BME280;34054;52.100;5.116;2022-12-20T00:26:25;101049.00;;;9.75;88.52
51876;BME280;34054;52.100;5.116;2022-12-20T00:26:58;101047.88;;;9.71;88.51
51876;BME280;34054;52.100;5.116;2022-12-20T00:27:30;101046.81;;;9.72;88.50
51876;BME280;34054;52.100;5.116;2022-12-20T00:28:02;101050.19;;;9.79;88.16
51876;BME280;34054;52.100;5.116;2022-12-20T00:28:35;101042.03;;;9.79;88.16
51876;BME280;34054;52.100;5.116;2022-12-20T00:29:09;101048.69;;;9.88;88.04
51876;BME280;34054;52.100;5.116;2022-12-20T00:29:41;101046.78;;;9.89;87.89
51876;BME280;34054;52.100;5.116;2022-12-20T00:30:13;101035.34;;;9.87;87.69
51876;BME280;34054;52.100;5.116;2022-12-20T00:30:52;101046.16;;;9.82;88.04
51876;BME280;34054;52.100;5.116;2022-12-20T00:31:26;101039.66;;;9.83;88.12
51876;BME280;34054;52.100;5.116;2022-12-20T00:32:00;101034.38;;;9.76;88.01
51876;BME280;34054;52.100;5.116;2022-12-20T00:32:31;101039.56;;;9.78;88.35
51876;BME280;34054;52.100;5.116;2022-12-20T00:33:03;101033.06;;;9.79;88.14
51876;BME280;34054;52.100;5.116;2022-12-20T00:33:37;101042.03;;;9.79;88.14
51876;BME280;34054;52.100;5.116;2022-12-20T00:34:09;101037.75;;;9.83;88.05
51876;BME280;34054;52.100;5.116;2022-12-20T00:34:41;101036.19;;;9.87;87.76
51876;BME280;34054;52.100;5.116;2022-12-20T00:35:13;101039.06;;;9.98;87.67
51876;BME280;34054;52.100;5.116;2022-12-20T00:35:45;101037.75;;;10.00;87.27
51876;BME280;34054;52.100;5.116;2022-12-20T00:36:18;101040.69;;;9.99;87.41
51876;BME280;34054;52.100;5.116;2022-12-20T00:36:51;101041.78;;;9.98;87.33
51876;BME280;34054;52.100;5.116;2022-12-20T00:37:23;101041.22;;;9.96;87.32
51876;BME280;34054;52.100;5.116;2022-12-20T00:37:54;101041.28;;;10.01;87.31
51876;BME280;34054;52.100;5.116;2022-12-20T00:38:27;101044.56;;;9.86;87.62
51876;BME280;34054;52.100;5.116;2022-12-20T00:38:59;101043.69;;;9.80;88.09
51876;BME280;34054;52.100;5.116;2022-12-20T00:39:31;101040.28;;;9.73;88.25
51876;BME280;34054;52.100;5.116;2022-12-20T00:40:05;101039.56;;;9.78;88.23
51876;BME280;34054;52.100;5.116;2022-12-20T00:40:38;101043.34;;;9.77;88.34
51876;BME280;34054;52.100;5.116;2022-12-20T00:41:11;101048.59;;;9.83;88.15
51876;BME280;34054;52.100;5.116;2022-12-20T00:41:45;101054.88;;;9.84;88.04
51876;BME280;34054;52.100;5.116;2022-12-20T00:42:17;101042.25;;;9.78;87.95
51876;BME280;34054;52.100;5.116;2022-12-20T00:42:48;101046.47;;;9.85;87.82
51876;BME280;34054;52.100;5.116;2022-12-20T00:43:21;101045.78;;;9.95;87.46
51876;BME280;34054;52.100;5.116;2022-12-20T00:43:52;101044.50;;;9.98;87.51
51876;BME280;34054;52.100;5.116;2022-12-20T00:44:26;101045.91;;;10.00;87.18
51876;BME280;34054;52.100;5.116;2022-12-20T00:44:58;101042.75;;;9.92;87.19
51876;BME280;34054;52.100;5.116;2022-12-20T00:45:30;101050.41;;;9.95;87.21
51876;BME280;34054;52.100;5.116;2022-12-20T00:46:02;101047.69;;;9.95;87.27
51876;BME280;34054;52.100;5.116;2022-12-20T00:46:34;101047.69;;;9.95;87.10
51876;BME280;34054;52.100;5.116;2022-12-20T00:47:07;101049.16;;;10.02;87.21
51876;BME280;34054;52.100;5.116;2022-12-20T00:47:38;101047.88;;;10.05;86.93
51876;BME280;34054;52.100;5.116;2022-12-20T00:48:10;101050.97;;;10.14;86.61
51876;BME280;34054;52.100;5.116;2022-12-20T00:48:42;101055.91;;;10.00;86.60
51876;BME280;34054;52.100;5.116;2022-12-20T00:49:14;101061.00;;;9.96;86.85
51876;BME280;34054;52.100;5.116;2022-12-20T00:49:46;101048.69;;;10.05;86.72
51876;BME280;34054;52.100;5.116;2022-12-20T00:50:18;101051.72;;;10.09;86.78
51876;BME280;34054;52.100;5.116;2022-12-20T00:50:51;101045.97;;;10.05;86.72
51876;BME280;34054;52.100;5.116;2022-12-20T00:51:25;101043.72;;;10.02;86.96
51876;BME280;34054;52.100;5.116;2022-12-20T00:51:58;101051.47;;;10.11;86.70
51876;BME280;34054;52.100;5.116;2022-12-20T00:52:31;101044.25;;;9.99;86.74
51876;BME280;34054;52.100;5.116;2022-12-20T00:53:02;101044.91;;;10.06;86.83
51876;BME280;34054;52.100;5.116;2022-12-20T00:53:35;101038.81;;;9.99;87.32
51876;BME280;34054;52.100;5.116;2022-12-20T00:54:08;101042.66;;;10.03;87.04
51876;BME280;34054;52.100;5.116;2022-12-20T00:54:39;101056.00;;;10.05;87.31
51876;BME280;34054;52.100;5.116;2022-12-20T00:55:11;101046.22;;;10.04;86.97
51876;BME280;34054;52.100;5.116;2022-12-20T00:55:45;101049.69;;;9.99;87.19
51876;BME280;34054;52.100;5.116;2022-12-20T00:56:18;101034.28;;;10.05;87.19
51876;BME280;34054;52.100;5.116;2022-12-20T00:56:50;101024.50;;;10.04;87.39
51876;BME280;34054;52.100;5.116;2022-12-20T00:57:22;101032.50;;;10.11;87.19
51876;BME280;34054;52.100;5.116;2022-12-20T00:57:54;101037.81;;;10.05;87.43
51876;BME280;34054;52.100;5.116;2022-12-20T00:58:26;101037.56;;;10.07;87.38
51876;BME280;34054;52.100;5.116;2022-12-20T00:58:58;101028.28;;;10.03;87.31
51876;BME280;34054;52.100;5.116;2022-12-20T00:59:33;101040.63;;;9.94;87.83
51876;BME280;34054;52.100;5.116;2022-12-20T01:00:06;101033.97;;;10.01;87.91
51876;BME280;34054;52.100;5.116;2022-12-20T01:00:39;101036.81;;;10.12;87.74
51876;BME280;34054;52.100;5.116;2022-12-20T01:01:18;101038.25;;;10.14;87.59
51876;BME280;34054;52.100;5.116;2022-12-20T01:01:51;101028.75;;;10.17;87.42
51876;BME280;34054;52.100;5.116;2022-12-20T01:02:23;101025.72;;;10.13;87.69
51876;BME280;34054;52.100;5.116;2022-12-20T01:02:55;101032.56;;;9.99;88.05
51876;BME280;34054;52.100;5.116;2022-12-20T01:03:27;101043.41;;;9.99;88.01
51876;BME280;34054;52.100;5.116;2022-12-20T01:04:00;101033.41;;;9.99;88.32
51876;BME280;34054;52.100;5.116;2022-12-20T01:04:32;101024.34;;;9.94;88.50
51876;BME280;34054;52.100;5.116;2022-12-20T01:05:04;101030.34;;;9.96;88.73
51876;BME280;34054;52.100;5.116;2022-12-20T01:05:37;101032.56;;;9.99;88.93
51876;BME280;34054;52.100;5.116;2022-12-20T01:06:09;101033.06;;;9.96;89.14
51876;BME280;34054;52.100;5.116;2022-12-20T01:06:41;101026.00;;;9.95;89.58
51876;BME280;34054;52.100;5.116;2022-12-20T01:07:14;101032.41;;;9.88;89.92
51876;BME280;34054;52.100;5.116;2022-12-20T01:07:45;101027.06;;;9.94;90.09
51876;BME280;34054;52.100;5.116;2022-12-20T01:08:17;101032.50;;;9.94;90.03
51876;BME280;34054;52.100;5.116;2022-12-20T01:08:49;101020.66;;;9.83;90.17
51876;BME280;34054;52.100;5.116;2022-12-20T01:09:22;101026.25;;;9.76;90.97
51876;BME280;34054;52.100;5.116;2022-12-20T01:09:53;101020.88;;;9.81;91.20
51876;BME280;34054;52.100;5.116;2022-12-20T01:10:25;101028.53;;;9.84;91.40
51876;BME280;34054;52.100;5.116;2022-12-20T01:10:59;101025.34;;;9.70;91.74
51876;BME280;34054;52.100;5.116;2022-12-20T01:11:33;101026.81;;;9.78;91.56
51876;BME280;34054;52.100;5.116;2022-12-20T01:12:07;101018.19;;;9.81;91.35
51876;BME280;34054;52.100;5.116;2022-12-20T01:12:39;101024.00;;;9.73;91.80
51876;BME280;34054;52.100;5.116;2022-12-20T01:13:10;101027.41;;;9.80;91.86
51876;BME280;34054;52.100;5.116;2022-12-20T01:13:43;101013.69;;;9.70;92.22
51876;BME280;34054;52.100;5.116;2022-12-20T01:14:18;101020.00;;;9.76;92.33
51876;BME280;34054;52.100;5.116;2022-12-20T01:14:51;101015.97;;;9.78;92.55
51876;BME280;34054;52.100;5.116;2022-12-20T01:15:22;101012.44;;;9.78;92.65
51876;BME280;34054;52.100;5.116;2022-12-20T01:15:55;101004.69;;;9.69;93.37
51876;BME280;34054;52.100;5.116;2022-12-20T01:16:29;101010.53;;;9.61;93.75
51876;BME280;34054;52.100;5.116;2022-12-20T01:17:05;101016.13;;;9.71;94.26
51876;BME280;34054;52.100;5.116;2022-12-20T01:17:37;101011.13;;;9.63;94.65
51876;BME280;34054;52.100;5.116;2022-12-20T01:18:08;101011.19;;;9.68;94.90
51876;BME280;34054;52.100;5.116;2022-12-20T01:18:40;101033.66;;;9.64;95.08
51876;BME280;34054;52.100;5.116;2022-12-20T01:19:15;101027.88;;;9.60;95.53
51876;BME280;34054;52.100;5.116;2022-12-20T01:19:47;101010.13;;;9.52;96.40
51876;BME280;34054;52.100;5.116;2022-12-20T01:20:19;101017.53;;;9.57;96.53
51876;BME280;34054;52.100;5.116;2022-12-20T01:21:00;101009.06;;;9.53;97.49
51876;BME280;34054;52.100;5.116;2022-12-20T01:21:33;101024.44;;;9.48;98.07
51876;BME280;34054;52.100;5.116;2022-12-20T01:22:04;101021.38;;;9.44;98.41
51876;BME280;34054;52.100;5.116;2022-12-20T01:22:37;101018.75;;;9.32;98.80
51876;BME280;34054;52.100;5.116;2022-12-20T01:23:08;101016.69;;;9.39;99.49
51876;BME280;34054;52.100;5.116;2022-12-20T01:23:40;101023.59;;;9.47;99.93
51876;BME280;34054;52.100;5.116;2022-12-20T01:24:12;101021.88;;;9.41;100.00
51876;BME280;34054;52.100;5.116;2022-12-20T01:24:46;101020.13;;;9.35;100.00
51876;BME280;34054;52.100;5.116;2022-12-20T01:25:20;101015.53;;;9.35;100.00
51876;BME280;34054;52.100;5.116;2022-12-20T01:25:52;101018.56;;;9.39;100.00
51876;BME280;34054;52.100;5.116;2022-12-20T01:26:25;101021.53;;;9.37;100.00
51876;BME280;34054;52.100;5.116;2022-12-20T01:26:59;101012.41;;;9.26;100.00
51876;BME280;34054;52.100;5.116;2022-12-20T01:27:31;101008.09;;;9.14;100.00
51876;BME280;34054;52.100;5.116;2022-12-20T01:28:03;101014.78;;;9.23;100.00
51876;BME280;34054;52.100;5.116;2022-12-20T01:28:37;101009.97;;;9.13;100.00
51876;BME280;34054;52.100;5.116;2022-12-20T01:29:11;101015.25;;;9.20;100.00
51876;BME280;34054;52.100;5.116;2022-12-20T01:29:45;101007.38;;;9.18;100.00
51876;BME280;34054;52.100;5.116;2022-12-20T01:30:18;101013.38;;;9.20;100.00
51876;BME280;34054;52.100;5.116;2022-12-20T01:30:49;101022.91;;;9.23;100.00
51876;BME280;34054;52.100;5.116;2022-12-20T01:31:21;101024.13;;;9.15;100.00
51876;BME280;34054;52.100;5.116;2022-12-20T01:31:54;101013.41;;;9.08;100.00
51876;BME280;34054;52.100;5.116;2022-12-20T01:32:26;101031.09;;;9.11;100.00
51876;BME280;34054;52.100;5.116;2022-12-20T01:32:58;101015.41;;;9.13;100.00
51876;BME280;34054;52.100;5.116;2022-12-20T01:33:29;101005.06;;;9.10;100.00
51876;BME280;34054;52.100;5.116;2022-12-20T01:34:02;101017.16;;;9.19;100.00
51876;BME280;34054;52.100;5.116;2022-12-20T01:34:33;101016.00;;;9.15;100.00
51876;BME280;34054;52.100;5.116;2022-12-20T01:35:06;101020.34;;;9.16;100.00
51876;BME280;34054;52.100;5.116;2022-12-20T01:35:38;101016.25;;;9.14;100.00
51876;BME280;34054;52.100;5.116;2022-12-20T01:36:12;101018.03;;;9.08;100.00
51876;BME280;34054;52.100;5.116;2022-12-20T01:36:45;101004.63;;;9.01;100.00
51876;BME280;34054;52.100;5.116;2022-12-20T01:37:19;101013.09;;;9.05;100.00
51876;BME280;34054;52.100;5.116;2022-12-20T01:37:50;100999.88;;;9.08;100.00
51876;BME280;34054;52.100;5.116;2022-12-20T01:38:22;101000.13;;;9.07;100.00
51876;BME280;34054;52.100;5.116;2022-12-20T01:38:56;101008.38;;;9.12;100.00
51876;BME280;34054;52.100;5.116;2022-12-20T01:39:29;101021.31;;;9.10;100.00
51876;BME280;34054;52.100;5.116;2022-12-20T01:40:02;101026.16;;;9.08;100.00
51876;BME280;34054;52.100;5.116;2022-12-20T01:40:34;101021.72;;;9.02;100.00
51876;BME280;34054;52.100;5.116;2022-12-20T01:41:13;101013.19;;;9.10;100.00
51876;BME280;34054;52.100;5.116;2022-12-20T01:41:48;101021.53;;;9.08;100.00
51876;BME280;34054;52.100;5.116;2022-12-20T01:42:19;101017.44;;;9.06;100.00
51876;BME280;34054;52.100;5.116;2022-12-20T01:42:52;101012.59;;;9.08;100.00
51876;BME280;34054;52.100;5.116;2022-12-20T01:43:25;101006.84;;;9.04;100.00
51876;BME280;34054;52.100;5.116;2022-12-20T01:45:31;101008.25;;;9.07;100.00
51876;BME280;34054;52.100;5.116;2022-12-20T01:46:02;101005.88;;;9.10;100.00
51876;BME280;34054;52.100;5.116;2022-12-20T01:46:34;101001.78;;;9.08;100.00
51876;BME280;34054;52.100;5.116;2022-12-20T01:47:07;100997.84;;;9.16;100.00
51876;BME280;34054;52.100;5.116;2022-12-20T01:47:40;100993.06;;;9.06;100.00
51876;BME280;34054;52.100;5.116;2022-12-20T01:48:12;101002.09;;;9.11;100.00
51876;BME280;34054;52.100;5.116;2022-12-20T01:48:48;100997.91;;;9.04;100.00
51876;BME280;34054;52.100;5.116;2022-12-20T01:49:28;100997.16;;;9.08;100.00
51876;BME280;34054;52.100;5.116;2022-12-20T01:50:03;100987.75;;;9.11;100.00
51876;BME280;34054;52.100;5.116;2022-12-20T01:50:37;100984.25;;;8.99;100.00
51876;BME280;34054;52.100;5.116;2022-12-20T01:51:09;100993.22;;;8.99;100.00
51876;BME280;34054;52.100;5.116;2022-12-20T01:51:43;100984.84;;;9.01;100.00
51876;BME280;34054;52.100;5.116;2022-12-20T01:52:23;100989.69;;;8.99;100.00
51876;BME280;34054;52.100;5.116;2022-12-20T01:52:59;100996.06;;;8.92;100.00
51876;BME280;34054;52.100;5.116;2022-12-20T01:53:34;100991.56;;;8.98;100.00
51876;BME280;34054;52.100;5.116;2022-12-20T01:54:12;100987.09;;;9.04;100.00
51876;BME280;34054;52.100;5.116;2022-12-20T01:54:52;100990.25;;;9.01;100.00
51876;BME280;34054;52.100;5.116;2022-12-20T01:55:27;100990.47;;;9.11;100.00
51876;BME280;34054;52.100;5.116;2022-12-20T01:56:04;100986.81;;;9.05;100.00
51876;BME280;34054;52.100;5.116;2022-12-20T01:56:38;100992.25;;;9.05;100.00
51876;BME280;34054;52.100;5.116;2022-12-20T01:57:15;100986.72;;;9.00;100.00
51876;BME280;34054;52.100;5.116;2022-12-20T01:57:54;100984.84;;;9.01;100.00
51876;BME280;34054;52.100;5.116;2022-12-20T01:58:32;100987.47;;;8.95;100.00
51876;BME280;34054;52.100;5.116;2022-12-20T01:59:07;100972.75;;;8.91;100.00
51876;BME280;34054;52.100;5.116;2022-12-20T01:59:41;100980.81;;;9.03;100.00
51876;BME280;34054;52.100;5.116;2022-12-20T02:00:16;100983.06;;;9.06;100.00
51876;BME280;34054;52.100;5.116;2022-12-20T02:00:51;100985.44;;;9.03;100.00
51876;BME280;34054;52.100;5.116;2022-12-20T02:01:24;100985.09;;;8.99;100.00
51876;BME280;34054;52.100;5.116;2022-12-20T02:01:57;100978.38;;;9.02;100.00
51876;BME280;34054;52.100;5.116;2022-12-20T02:02:32;100986.25;;;9.03;100.00
51876;BME280;34054;52.100;5.116;2022-12-20T02:03:06;100985.75;;;9.06;100.00
51876;BME280;34054;52.100;5.116;2022-12-20T02:03:42;100982.47;;;9.04;100.00
51876;BME280;34054;52.100;5.116;2022-12-20T02:04:16;100990.75;;;8.98;100.00
51876;BME280;34054;52.100;5.116;2022-12-20T02:04:47;100986.38;;;8.96;100.00
51876;BME280;34054;52.100;5.116;2022-12-20T02:05:21;100988.38;;;9.01;100.00
51876;BME280;34054;52.100;5.116;2022-12-20T02:05:54;100995.75;;;9.06;100.00
51876;BME280;34054;52.100;5.116;2022-12-20T02:06:26;100989.41;;;9.00;100.00
51876;BME280;34054;52.100;5.116;2022-12-20T02:06:58;100988.81;;;9.10;100.00
51876;BME280;34054;52.100;5.116;2022-12-20T02:07:33;100977.97;;;9.10;100.00
51876;BME280;34054;52.100;5.116;2022-12-20T02:08:08;100982.06;;;9.13;100.00
51876;BME280;34054;52.100;5.116;2022-12-20T02:08:43;100983.06;;;9.06;100.00
51876;BME280;34054;52.100;5.116;2022-12-20T02:09:18;100975.50;;;9.08;100.00
51876;BME280;34054;52.100;5.116;2022-12-20T02:09:51;100982.66;;;9.15;100.00
51876;BME280;34054;52.100;5.116;2022-12-20T02:10:33;100984.53;;;9.14;100.00
51876;BME280;34054;52.100;5.116;2022-12-20T02:11:33;100970.59;;;9.22;100.00
51876;BME280;34054;52.100;5.116;2022-12-20T02:12:19;100963.78;;;9.20;100.00
51876;BME280;34054;52.100;5.116;2022-12-20T02:12:57;100963.38;;;9.11;100.00
51876;BME280;34054;52.100;5.116;2022-12-20T02:13:47;100970.31;;;9.07;100.00
51876;BME280;34054;52.100;5.116;2022-12-20T02:14:36;100973.47;;;9.16;100.00
51876;BME280;34054;52.100;5.116;2022-12-20T02:15:31;100965.75;;;9.24;100.00
51876;BME280;34054;52.100;5.116;2022-12-20T02:16:14;100955.78;;;9.13;100.00
51876;BME280;34054;52.100;5.116;2022-12-20T02:16:57;100970.84;;;9.21;100.00
51876;BME280;34054;52.100;5.116;2022-12-20T02:17:44;100958.84;;;9.17;100.00
51876;BME280;34054;52.100;5.116;2022-12-20T02:18:28;100951.88;;;9.21;100.00
51876;BME280;34054;52.100;5.116;2022-12-20T02:19:21;100955.56;;;9.15;100.00
51876;BME280;34054;52.100;5.116;2022-12-20T02:20:52;100969.38;;;9.30;100.00
51876;BME280;34054;52.100;5.116;2022-12-20T02:21:45;100965.28;;;9.27;100.00
51876;BME280;34054;52.100;5.116;2022-12-20T02:22:34;100987.09;;;9.21;100.00
51876;BME280;34054;52.100;5.116;2022-12-20T02:23:57;100976.50;;;9.19;100.00
51876;BME280;34054;52.100;5.116;2022-12-20T02:25:03;100974.06;;;9.35;100.00
51876;BME280;34054;52.100;5.116;2022-12-20T02:26:07;100971.81;;;9.15;100.00
51876;BME280;34054;52.100;5.116;2022-12-20T02:29:24;100968.56;;;9.30;100.00
51876;BME280;34054;52.100;5.116;2022-12-20T02:30:09;100962.22;;;9.41;100.00
51876;BME280;34054;52.100;5.116;2022-12-20T02:30:46;100979.22;;;9.36;100.00
51876;BME280;34054;52.100;5.116;2022-12-20T02:31:28;100967.47;;;9.31;100.00
51876;BME280;34054;52.100;5.116;2022-12-20T02:32:08;100983.50;;;9.32;100.00
51876;BME280;34054;52.100;5.116;2022-12-20T02:32:53;100979.16;;;9.31;100.00
51876;BME280;34054;52.100;5.116;2022-12-20T02:33:31;100968.56;;;9.30;100.00
51876;BME280;34054;52.100;5.116;2022-12-20T02:34:04;100970.38;;;9.24;100.00
51876;BME280;34054;52.100;5.116;2022-12-20T02:34:39;100966.22;;;9.21;100.00
51876;BME280;34054;52.100;5.116;2022-12-20T02:35:18;100962.13;;;9.19;100.00
51876;BME280;34054;52.100;5.116;2022-12-20T02:35:52;100959.75;;;9.22;100.00
51876;BME280;34054;52.100;5.116;2022-12-20T02:36:23;100955.31;;;9.16;100.00
51876;BME280;34054;52.100;5.116;2022-12-20T02:36:56;100965.41;;;9.21;100.00
51876;BME280;34054;52.100;5.116;2022-12-20T02:37:27;100956.88;;;9.29;100.00
51876;BME280;34054;52.100;5.116;2022-12-20T02:38:02;100962.06;;;9.31;100.00
51876;BME280;34054;52.100;5.116;2022-12-20T02:38:55;100961.00;;;9.32;100.00
51876;BME280;34054;52.100;5.116;2022-12-20T02:39:30;100968.63;;;9.35;100.00
51876;BME280;34054;52.100;5.116;2022-12-20T02:40:04;100949.75;;;9.40;100.00
51876;BME280;34054;52.100;5.116;2022-12-20T02:40:40;100942.13;;;9.37;100.00
51876;BME280;34054;52.100;5.116;2022-12-20T02:41:18;100950.56;;;9.40;100.00
51876;BME280;34054;52.100;5.116;2022-12-20T02:41:56;100956.22;;;9.39;100.00
51876;BME280;34054;52.100;5.116;2022-12-20T02:42:32;100965.94;;;9.35;100.00
51876;BME280;34054;52.100;5.116;2022-12-20T02:43:06;100957.38;;;9.26;100.00
51876;BME280;34054;52.100;5.116;2022-12-20T02:44:05;100964.47;;;9.44;100.00
51876;BME280;34054;52.100;5.116;2022-12-20T02:45:02;100952.28;;;9.47;100.00
51876;BME280;34054;52.100;5.116;2022-12-20T02:45:48;100956.81;;;9.41;100.00
51876;BME280;34054;52.100;5.116;2022-12-20T02:46:21;100956.00;;;9.40;100.00
51876;BME280;34054;52.100;5.116;2022-12-20T02:46:59;100960.75;;;9.50;100.00
51876;BME280;34054;52.100;5.116;2022-12-20T02:47:39;100958.31;;;9.49;100.00
51876;BME280;34054;52.100;5.116;2022-12-20T02:48:17;100960.34;;;9.41;100.00
51876;BME280;34054;52.100;5.116;2022-12-20T02:48:51;100958.72;;;9.40;100.00
51876;BME280;34054;52.100;5.116;2022-12-20T02:49:29;100957.88;;;9.40;100.00
51876;BME280;34054;52.100;5.116;2022-12-20T02:50:06;100957.78;;;9.35;100.00
51876;BME280;34054;52.100;5.116;2022-12-20T02:50:42;100961.41;;;9.40;100.00
51876;BME280;34054;52.100;5.116;2022-12-20T02:51:19;100959.94;;;9.33;100.00
51876;BME280;34054;52.100;5.116;2022-12-20T02:51:55;100966.50;;;9.37;100.00
51876;BME280;34054;52.100;5.116;2022-12-20T02:52:30;100965.66;;;9.36;100.00
51876;BME280;34054;52.100;5.116;2022-12-20T02:53:05;100957.78;;;9.35;100.00
51876;BME280;34054;52.100;5.116;2022-12-20T02:53:39;100962.81;;;9.43;100.00
51876;BME280;34054;52.100;5.116;2022-12-20T02:54:11;100949.09;;;9.33;100.00
51876;BME280;34054;52.100;5.116;2022-12-20T02:54:44;100964.47;;;9.44;100.00
51876;BME280;34054;52.100;5.116;2022-12-20T02:55:16;100951.50;;;9.46;100.00
51876;BME280;34054;52.100;5.116;2022-12-20T02:55:55;100949.66;;;9.52;100.00
51876;BME280;34054;52.100;5.116;2022-12-20T02:56:36;100948.38;;;9.54;100.00
51876;BME280;34054;52.100;5.116;2022-12-20T02:57:15;100950.06;;;9.43;100.00
51876;BME280;34054;52.100;5.116;2022-12-20T02:57:54;100943.25;;;9.41;100.00
51876;BME280;34054;52.100;5.116;2022-12-20T02:58:35;100948.25;;;9.49;100.00
51876;BME280;34054;52.100;5.116;2022-12-20T02:59:13;100927.06;;;9.29;100.00
51876;BME280;34054;52.100;5.116;2022-12-20T02:59:55;100939.81;;;9.29;100.00
51876;BME280;34054;52.100;5.116;2022-12-20T03:00:35;100936.91;;;9.35;100.00
51876;BME280;34054;52.100;5.116;2022-12-20T03:01:16;100936.44;;;9.38;100.00
51876;BME280;34054;52.100;5.116;2022-12-20T03:01:53;100932.97;;;9.26;100.00
51876;BME280;34054;52.100;5.116;2022-12-20T03:02:27;100936.84;;;9.30;100.00
51876;BME280;34054;52.100;5.116;2022-12-20T03:03:20;100932.56;;;9.34;100.00
51876;BME280;34054;52.100;5.116;2022-12-20T03:03:56;100927.72;;;9.36;100.00
51876;BME280;34054;52.100;5.116;2022-12-20T03:04:30;100927.97;;;9.35;100.00
51876;BME280;34054;52.100;5.116;2022-12-20T03:05:08;100932.00;;;9.32;100.00
51876;BME280;34054;52.100;5.116;2022-12-20T03:05:43;100929.53;;;9.31;100.00
51876;BME280;34054;52.100;5.116;2022-12-20T03:06:17;100937.25;;;9.39;100.00
51876;BME280;34054;52.100;5.116;2022-12-20T03:06:58;100947.03;;;9.40;100.00
51876;BME280;34054;52.100;5.116;2022-12-20T03:07:32;100946.28;;;9.27;100.00
51876;BME280;34054;52.100;5.116;2022-12-20T03:08:04;100946.13;;;9.34;100.00
51876;BME280;34054;52.100;5.116;2022-12-20T03:08:37;100941.53;;;9.35;100.00
51876;BME280;34054;52.100;5.116;2022-12-20T03:09:09;100943.84;;;9.43;100.00
51876;BME280;34054;52.100;5.116;2022-12-20T03:09:42;100945.97;;;9.41;100.00